AYT weather

Antalya International Airport
Antalya, Antalya Province, Turkey

Public forecast

Using degrees Celsius for public forecast. Weather courtesy of forecast.io.

METAR (pilot weather report)

Retrieved 2019/03/26 09:20 UTC (38 minutes ago):

LTAI 260920Z 17008KT CAVOK 17/08 Q1010 NOSIG RMK RWY18C 15008KT 110V200 RWY36R 16008KT 120V180 RWY18L 17008KT 140V210

TAF (pilot weather forecast)

Forecast is more than 12 hours old.

Retrieved 2019/03/25 18:00 UTC (16 hours ago):

TAF LTAI 251640Z 2518/2618 34009KT CAVOK BECMG 2606/2609 16010KT BECMG 2612/2615 FEW030 BKN200